createdAt,value
2019-04-23T00:00:29.408Z,0.00
2019-04-23T00:01:35.372Z,0.00
2019-04-23T00:02:30.140Z,0.00
2019-04-23T00:03:36.007Z,0.00
2019-04-23T00:04:28.397Z,0.00
2019-04-23T00:05:48.558Z,0.00
2019-04-23T00:06:32.208Z,0.00
2019-04-23T00:07:44.307Z,0.00
2019-04-23T00:08:41.996Z,0.00
2019-04-23T00:09:36.852Z,0.00
2019-04-23T00:10:53.742Z,0.00
2019-04-23T00:11:32.534Z,0.00
2019-04-23T00:12:47.848Z,0.00
2019-04-23T00:13:39.325Z,0.00
2019-04-23T00:14:38.512Z,0.00
2019-04-23T00:15:30.428Z,0.00
2019-04-23T00:16:39.458Z,0.00
2019-04-23T00:17:40.234Z,0.00
2019-04-23T00:18:42.652Z,0.00
2019-04-23T00:19:31.154Z,0.00
2019-04-23T00:20:34.875Z,0.00
2019-04-23T00:21:33.367Z,0.00
2019-04-23T00:23:49.807Z,0.00
2019-04-23T00:24:56.790Z,0.00
2019-04-23T00:26:50.459Z,0.00
2019-04-23T00:27:38.869Z,0.00
2019-04-23T00:28:35.906Z,0.00
2019-04-23T00:29:37.058Z,0.00
2019-04-23T00:30:43.220Z,0.00
2019-04-23T00:31:41.204Z,0.00
2019-04-23T00:32:35.055Z,0.00
2019-04-23T00:33:34.604Z,0.00
2019-04-23T00:34:42.658Z,0.00
2019-04-23T00:35:38.660Z,0.00
2019-04-23T00:37:37.392Z,0.00
2019-04-23T00:38:38.405Z,0.00
2019-04-23T00:39:41.002Z,0.00
2019-04-23T00:40:40.385Z,0.00
2019-04-23T00:41:36.624Z,0.00
2019-04-23T00:43:00.655Z,0.00
2019-04-23T00:43:34.252Z,0.00
2019-04-23T00:44:40.067Z,0.00
2019-04-23T00:45:40.721Z,0.00
2019-04-23T00:46:34.955Z,0.00
2019-04-23T00:47:51.388Z,0.00
2019-04-23T00:50:04.331Z,0.00
2019-04-23T00:50:44.980Z,0.00
2019-04-23T00:51:38.243Z,0.00
2019-04-23T00:52:50.691Z,0.00
2019-04-23T00:53:34.226Z,0.00
2019-04-23T00:54:46.840Z,0.00
2019-04-23T00:55:35.598Z,0.00
2019-04-23T00:56:57.028Z,0.00
2019-04-23T00:59:41.141Z,0.00
2019-04-23T01:01:47.752Z,0.00
2019-04-23T01:02:37.290Z,0.00
2019-04-23T01:03:37.454Z,0.00
2019-04-23T01:04:41.798Z,0.00
2019-04-23T01:05:37.718Z,0.00
2019-04-23T01:06:39.349Z,0.00
2019-04-23T01:07:40.337Z,0.00
2019-04-23T01:08:36.871Z,0.00
2019-04-23T01:09:42.263Z,0.00
2019-04-23T01:10:34.900Z,0.00
2019-04-23T01:11:34.211Z,0.00
2019-04-23T01:14:38.581Z,0.00
2019-04-23T01:15:39.111Z,0.00
2019-04-23T01:16:38.114Z,0.00
2019-04-23T01:17:39.946Z,0.00
2019-04-23T01:18:49.093Z,0.00
2019-04-23T01:19:37.486Z,0.00
2019-04-23T01:20:36.571Z,0.00
2019-04-23T01:21:18.029Z,0.00
2019-04-23T01:22:16.927Z,0.00
2019-04-23T01:23:20.652Z,0.00
2019-04-23T01:24:20.131Z,0.00
2019-04-23T01:25:24.773Z,0.00
2019-04-23T01:26:39.079Z,0.00
2019-04-23T01:27:57.232Z,0.00
2019-04-23T01:28:50.278Z,0.00
2019-04-23T01:29:42.510Z,0.00
2019-04-23T01:30:40.507Z,0.00
2019-04-23T01:31:43.091Z,0.00
2019-04-23T01:32:44.048Z,0.00
2019-04-23T01:33:44.696Z,0.00
2019-04-23T01:34:51.958Z,0.00
2019-04-23T01:35:42.494Z,0.00
2019-04-23T01:36:37.231Z,0.00
2019-04-23T01:37:41.088Z,0.00
2019-04-23T01:38:45.541Z,0.00
2019-04-23T01:39:43.892Z,0.00
2019-04-23T01:40:40.611Z,0.00
2019-04-23T01:41:47.823Z,0.00
2019-04-23T01:43:44.351Z,0.00
2019-04-23T01:45:35.916Z,0.00
2019-04-23T01:47:45.373Z,0.00
2019-04-23T01:48:48.190Z,0.00
2019-04-23T01:49:56.532Z,0.00
2019-04-23T01:50:48.375Z,0.00
2019-04-23T01:51:46.801Z,0.00
2019-04-23T01:52:52.165Z,0.00
2019-04-23T01:53:45.489Z,0.00
2019-04-23T01:54:45.549Z,0.00
2019-04-23T01:55:46.999Z,0.00
2019-04-23T01:56:38.584Z,0.00
2019-04-23T01:58:51.874Z,0.00
2019-04-23T01:59:49.772Z,0.00
2019-04-23T02:00:49.423Z,0.00
2019-04-23T02:01:51.865Z,0.00
2019-04-23T02:02:49.600Z,0.00
2019-04-23T02:03:52.247Z,0.00
2019-04-23T02:04:46.117Z,0.00
2019-04-23T02:06:45.460Z,0.00
2019-04-23T02:07:53.711Z,0.00
2019-04-23T02:08:48.519Z,0.00
2019-04-23T02:09:53.188Z,0.00
2019-04-23T02:10:51.253Z,0.00
2019-04-23T02:11:43.829Z,0.00
2019-04-23T02:12:47.719Z,0.00
2019-04-23T02:13:48.987Z,0.00
2019-04-23T02:14:51.767Z,0.00
2019-04-23T02:16:44.107Z,0.00
2019-04-23T02:17:52.114Z,0.00
2019-04-23T02:18:49.318Z,0.00
2019-04-23T02:20:48.078Z,0.00
2019-04-23T02:21:54.821Z,0.00
2019-04-23T02:23:44.023Z,0.00
2019-04-23T02:24:47.696Z,0.00
2019-04-23T02:26:43.453Z,0.00
2019-04-23T02:27:52.248Z,0.00
2019-04-23T02:30:20.701Z,0.00
2019-04-23T02:31:58.193Z,0.00
2019-04-23T02:32:59.463Z,0.00
2019-04-23T02:35:02.341Z,0.00
2019-04-23T02:38:00.323Z,0.00
2019-04-23T02:40:01.021Z,0.00
2019-04-23T02:43:59.292Z,0.00
2019-04-23T02:44:56.346Z,0.00
2019-04-23T02:46:59.330Z,0.00
2019-04-23T02:48:01.511Z,0.00
2019-04-23T02:48:58.272Z,0.00
2019-04-23T02:50:33.632Z,0.00
2019-04-23T02:52:57.793Z,0.00
2019-04-23T02:56:51.478Z,0.00
2019-04-23T02:58:01.868Z,0.00
2019-04-23T03:02:12.009Z,0.00
2019-04-23T03:04:02.360Z,0.00
2019-04-23T03:05:57.264Z,0.00
2019-04-23T03:07:16.032Z,0.00
2019-04-23T03:07:54.237Z,0.00
2019-04-23T03:12:00.698Z,0.00
2019-04-23T03:13:19.800Z,0.00
2019-04-23T03:15:05.101Z,0.00
2019-04-23T03:17:03.053Z,0.00
2019-04-23T03:18:12.203Z,0.00
2019-04-23T03:19:58.578Z,0.00
2019-04-23T03:21:11.636Z,0.00
2019-04-23T03:26:00.191Z,0.00
2019-04-23T03:28:11.714Z,0.00
2019-04-23T03:29:04.297Z,0.00
2019-04-23T03:32:30.841Z,0.00
2019-04-23T03:37:55.774Z,0.00
2019-04-23T03:41:09.125Z,0.00
2019-04-23T03:42:24.415Z,0.00
2019-04-23T03:43:47.086Z,0.00
2019-04-23T03:46:12.141Z,0.00
2019-04-23T03:46:51.415Z,0.00
2019-04-23T03:48:00.804Z,0.00
2019-04-23T03:48:51.204Z,0.00
2019-04-23T03:50:58.206Z,4.00
2019-04-23T03:52:01.223Z,0.00
2019-04-23T03:52:57.639Z,0.00
2019-04-23T03:54:05.840Z,4.00
2019-04-23T03:54:49.046Z,0.00
2019-04-23T03:56:05.600Z,4.00
2019-04-23T03:57:52.602Z,4.00
2019-04-23T03:58:58.188Z,4.00
2019-04-23T04:00:04.021Z,8.00
2019-04-23T04:01:01.401Z,8.00
2019-04-23T04:04:49.858Z,16.00
2019-04-23T04:09:08.517Z,28.00
2019-04-23T04:09:53.875Z,36.00
2019-04-23T04:12:00.982Z,48.00
2019-04-23T04:12:56.899Z,60.00
2019-04-23T04:16:07.464Z,88.00
2019-04-23T04:16:59.862Z,96.00
2019-04-23T04:18:11.676Z,112.00
2019-04-23T04:21:08.750Z,148.00
2019-04-23T04:22:15.104Z,160.00
2019-04-23T04:23:07.887Z,176.00
2019-04-23T04:25:03.256Z,204.00
2019-04-23T04:26:00.288Z,224.00
2019-04-23T04:29:01.244Z,284.00
2019-04-23T04:30:01.646Z,308.00
2019-04-23T04:30:53.746Z,328.00
2019-04-23T04:36:10.297Z,480.00
2019-04-23T04:37:27.650Z,512.00
2019-04-23T04:38:05.725Z,540.00
2019-04-23T04:40:23.259Z,604.00
2019-04-23T04:41:04.286Z,636.00
2019-04-23T04:41:58.827Z,672.00
2019-04-23T04:46:59.181Z,848.00
2019-04-23T04:47:53.986Z,880.00
2019-04-23T04:51:07.983Z,968.00
2019-04-23T04:55:03.279Z,1124.00
2019-04-23T04:56:14.281Z,1168.00
2019-04-23T04:57:04.987Z,1212.00
2019-04-23T04:57:58.148Z,1260.00
2019-04-23T05:00:45.653Z,1356.00
2019-04-23T05:02:09.669Z,1456.00
2019-04-23T05:04:02.421Z,1556.00
2019-04-23T05:07:22.880Z,1708.00
2019-04-23T05:09:00.753Z,1816.00
2019-04-23T05:10:08.797Z,1868.00
2019-04-23T05:11:10.862Z,1916.00
2019-04-23T05:13:21.370Z,2024.00
2019-04-23T05:14:01.352Z,2080.00
2019-04-23T05:15:02.680Z,2136.00
2019-04-23T05:16:02.916Z,2192.00
2019-04-23T05:17:19.829Z,2252.00
2019-04-23T05:18:08.393Z,2312.00
2019-04-23T05:19:20.071Z,2372.00
2019-04-23T05:19:58.952Z,2428.00
2019-04-23T05:21:08.107Z,2488.00
2019-04-23T05:23:09.153Z,2608.00
2019-04-23T05:24:06.685Z,2668.00
2019-04-23T05:24:52.812Z,2728.00
2019-04-23T05:26:02.801Z,2792.00
2019-04-23T05:26:57.957Z,2852.00
2019-04-23T05:28:07.697Z,2916.00
2019-04-23T05:29:01.725Z,2976.00
2019-04-23T05:30:02.213Z,3036.00
2019-04-23T05:31:02.311Z,3100.00
2019-04-23T05:31:53.530Z,3168.00
2019-04-23T05:33:08.827Z,3228.00
2019-04-23T05:34:02.965Z,3292.00
2019-04-23T05:34:56.130Z,3356.00
2019-04-23T05:36:12.786Z,3424.00
2019-04-23T05:37:00.171Z,3492.00
2019-04-23T05:38:08.856Z,3556.00
2019-04-23T05:40:00.438Z,3692.00
2019-04-23T05:41:03.714Z,3760.00
2019-04-23T05:42:13.997Z,3832.00
2019-04-23T05:42:58.726Z,3896.00
2019-04-23T05:44:05.215Z,3972.00
2019-04-23T05:45:00.827Z,4036.00
2019-04-23T05:45:56.876Z,4104.00
2019-04-23T05:47:06.312Z,4168.00
2019-04-23T05:48:09.704Z,4236.00
2019-04-23T05:49:04.556Z,4312.00
2019-04-23T05:50:00.430Z,4376.00
2019-04-23T05:51:09.642Z,4452.00
2019-04-23T05:52:59.757Z,4592.00
2019-04-23T05:53:58.397Z,4660.00
2019-04-23T05:55:02.678Z,4728.00
2019-04-23T05:56:01.973Z,4804.00
2019-04-23T05:56:55.076Z,4872.00
2019-04-23T05:58:06.435Z,4936.00
2019-04-23T05:59:11.562Z,5008.00
2019-04-23T06:00:04.226Z,5076.00
2019-04-23T06:01:11.409Z,5140.00
2019-04-23T06:01:58.627Z,5208.00
2019-04-23T06:03:06.345Z,5280.00
2019-04-23T06:04:57.342Z,5424.00
2019-04-23T06:06:02.969Z,5496.00
2019-04-23T06:08:03.443Z,5640.00
2019-04-23T06:08:58.628Z,5724.00
2019-04-23T06:09:59.455Z,5792.00
2019-04-23T06:11:02.325Z,5872.00
2019-04-23T06:12:59.681Z,6032.00
2019-04-23T06:14:05.175Z,6108.00
2019-04-23T06:15:01.652Z,6188.00
2019-04-23T06:15:57.705Z,6268.00
2019-04-23T06:17:03.179Z,6348.00
2019-04-23T06:20:06.689Z,6588.00
2019-04-23T06:21:15.646Z,6668.00
2019-04-23T06:22:07.476Z,6740.00
2019-04-23T06:23:06.388Z,6816.00
2019-04-23T06:24:13.114Z,6896.00
2019-04-23T06:25:03.357Z,6980.00
2019-04-23T06:26:19.773Z,7064.00
2019-04-23T06:28:05.094Z,7232.00
2019-04-23T06:29:05.017Z,7312.00
2019-04-23T06:30:23.896Z,7400.00
2019-04-23T06:31:04.996Z,7488.00
2019-04-23T06:32:14.927Z,7580.00
2019-04-23T06:32:59.644Z,7664.00
2019-04-23T06:34:04.196Z,7760.00
2019-04-23T06:35:01.494Z,7852.00
2019-04-23T06:36:05.497Z,7924.00
2019-04-23T06:37:06.870Z,8004.00
2019-04-23T06:38:26.137Z,8076.00
2019-04-23T06:40:00.387Z,8236.00
2019-04-23T06:41:00.799Z,8312.00
2019-04-23T06:42:00.454Z,8396.00
2019-04-23T06:43:05.361Z,8480.00
2019-04-23T06:44:05.823Z,8560.00
2019-04-23T06:45:02.954Z,8644.00
2019-04-23T06:45:59.080Z,8700.00
2019-04-23T06:47:03.711Z,8776.00
2019-04-23T06:48:09.179Z,8852.00
2019-04-23T06:49:00.849Z,8928.00
2019-04-23T06:50:00.131Z,9000.00
2019-04-23T06:51:04.254Z,9072.00
2019-04-23T06:52:08.632Z,9152.00
2019-04-23T06:52:57.211Z,9224.00
2019-04-23T06:55:01.155Z,9388.00
2019-04-23T06:56:03.867Z,9460.00
2019-04-23T06:57:14.604Z,9528.00
2019-04-23T06:58:04.490Z,9600.00
2019-04-23T06:59:06.368Z,9672.00
2019-04-23T07:00:02.398Z,9748.00
2019-04-23T07:01:02.079Z,9828.00
2019-04-23T07:02:06.658Z,9884.00
2019-04-23T07:03:10.828Z,9956.00
2019-04-23T07:04:05.467Z,10020.00
2019-04-23T07:07:24.141Z,10224.00
2019-04-23T07:08:02.788Z,10296.00
2019-04-23T07:09:10.724Z,10360.00
2019-04-23T07:09:59.377Z,10428.00
2019-04-23T07:11:07.890Z,10496.00
2019-04-23T07:11:55.535Z,10572.00
2019-04-23T07:13:08.889Z,10648.00
2019-04-23T07:15:04.472Z,10792.00
2019-04-23T07:16:03.189Z,10868.00
2019-04-23T07:17:04.189Z,10940.00
2019-04-23T07:18:05.806Z,11016.00
2019-04-23T07:20:00.242Z,11152.00
2019-04-23T07:21:09.453Z,11224.00
2019-04-23T07:22:16.400Z,11276.00
2019-04-23T07:23:10.195Z,11332.00
2019-04-23T07:24:05.211Z,11380.00
2019-04-23T07:26:08.075Z,11504.00
2019-04-23T07:27:03.310Z,11552.00
2019-04-23T07:28:06.890Z,11608.00
2019-04-23T07:29:08.971Z,11656.00
2019-04-23T07:30:08.684Z,11712.00
2019-04-23T07:31:07.345Z,11760.00
2019-04-23T07:33:04.524Z,11840.00
2019-04-23T07:34:20.428Z,11880.00
2019-04-23T07:35:07.232Z,11916.00
2019-04-23T07:36:08.580Z,11960.00
2019-04-23T07:37:06.950Z,12008.00
2019-04-23T07:38:16.363Z,12056.00
2019-04-23T07:39:11.638Z,12096.00
2019-04-23T07:41:15.327Z,12180.00
2019-04-23T07:42:08.108Z,12236.00
2019-04-23T07:44:16.669Z,12320.00
2019-04-23T07:46:10.547Z,12408.00
2019-04-23T07:47:16.193Z,12448.00
2019-04-23T07:48:10.854Z,12492.00
2019-04-23T07:49:04.618Z,12532.00
2019-04-23T07:50:19.092Z,12580.00
2019-04-23T07:51:03.339Z,12624.00
2019-04-23T07:54:08.064Z,12752.00
2019-04-23T07:55:16.326Z,12784.00
2019-04-23T07:56:07.502Z,12812.00
2019-04-23T07:57:13.488Z,12844.00
2019-04-23T07:58:14.294Z,12868.00
2019-04-23T07:59:16.049Z,12888.00
2019-04-23T08:00:29.707Z,12916.00
2019-04-23T08:01:11.264Z,12936.00
2019-04-23T08:02:15.915Z,12964.00
2019-04-23T08:03:13.560Z,12984.00
2019-04-23T08:04:30.188Z,13012.00
2019-04-23T08:05:21.595Z,13032.00
2019-04-23T08:06:04.230Z,13052.00
2019-04-23T08:07:12.834Z,13080.00
2019-04-23T08:08:07.286Z,13104.00
2019-04-23T08:09:08.549Z,13128.00
2019-04-23T08:10:10.394Z,13164.00
2019-04-23T08:11:30.471Z,13196.00
2019-04-23T08:12:13.690Z,13248.00
2019-04-23T08:13:10.336Z,13280.00
2019-04-23T08:14:05.172Z,13316.00
2019-04-23T08:15:13.082Z,13356.00
2019-04-23T08:16:19.152Z,13392.00
2019-04-23T08:17:07.395Z,13424.00
2019-04-23T08:18:08.893Z,13456.00
2019-04-23T08:19:24.555Z,13496.00
2019-04-23T08:20:07.860Z,13540.00
2019-04-23T08:21:10.448Z,13572.00
2019-04-23T08:22:09.174Z,13644.00
2019-04-23T08:23:12.532Z,13664.00
2019-04-23T08:24:17.011Z,13676.00
2019-04-23T08:25:27.249Z,13704.00
2019-04-23T08:26:13.598Z,13728.00
2019-04-23T08:27:16.629Z,13712.00
2019-04-23T08:28:13.551Z,13676.00
2019-04-23T08:29:12.280Z,13628.00
2019-04-23T08:30:04.532Z,13584.00
2019-04-23T08:34:18.642Z,13492.00
2019-04-23T08:36:12.239Z,13504.00
2019-04-23T08:37:08.902Z,13488.00
2019-04-23T08:39:11.539Z,13468.00
2019-04-23T08:40:20.176Z,13540.00
2019-04-23T08:41:20.644Z,13580.00
2019-04-23T08:42:27.055Z,13628.00
2019-04-23T08:44:15.582Z,13780.00
2019-04-23T08:45:18.709Z,13808.00
2019-04-23T08:46:13.990Z,13788.00
2019-04-23T08:47:10.099Z,13736.00
2019-04-23T08:49:13.977Z,13676.00
2019-04-23T08:50:06.812Z,13624.00
2019-04-23T08:51:22.325Z,13600.00
2019-04-23T08:52:11.791Z,13568.00
2019-04-23T08:53:26.369Z,13540.00
2019-04-23T08:54:13.300Z,13564.00
2019-04-23T08:55:08.675Z,13592.00
2019-04-23T08:56:10.639Z,13644.00
2019-04-23T08:57:22.706Z,13680.00
2019-04-23T08:58:14.101Z,13692.00
2019-04-23T08:59:22.896Z,13696.00
2019-04-23T09:00:07.827Z,13700.00
2019-04-23T09:01:10.830Z,13760.00
2019-04-23T09:02:25.564Z,13792.00
2019-04-23T09:04:10.614Z,13848.00
2019-04-23T09:05:20.802Z,13812.00
2019-04-23T09:06:25.844Z,13840.00
2019-04-23T09:07:16.719Z,13828.00
2019-04-23T09:09:13.233Z,13824.00
2019-04-23T09:10:15.345Z,13816.00
2019-04-23T09:12:18.866Z,13712.00
2019-04-23T09:13:35.291Z,13712.00
2019-04-23T09:14:05.210Z,13556.00
2019-04-23T09:15:16.810Z,13424.00
2019-04-23T09:16:09.011Z,13340.00
2019-04-23T09:17:17.201Z,13160.00
2019-04-23T09:19:16.036Z,12960.00
2019-04-23T09:22:25.141Z,12704.00
2019-04-23T09:23:13.306Z,12660.00
2019-04-23T09:24:09.591Z,12612.00
2019-04-23T09:25:20.300Z,12576.00
2019-04-23T09:26:22.742Z,12620.00
2019-04-23T09:27:18.143Z,12732.00
2019-04-23T09:28:24.017Z,12880.00
2019-04-23T09:29:14.795Z,13036.00
2019-04-23T09:30:12.600Z,13180.00
2019-04-23T09:32:22.422Z,13484.00
2019-04-23T09:33:14.063Z,13644.00
2019-04-23T09:34:11.439Z,13796.00
2019-04-23T09:35:20.229Z,13920.00
2019-04-23T09:36:13.579Z,14048.00
2019-04-23T09:37:18.843Z,14172.00
2019-04-23T09:38:11.705Z,14268.00
2019-04-23T09:39:12.897Z,14356.00
2019-04-23T09:40:27.597Z,14460.00
2019-04-23T09:42:16.156Z,14616.00
2019-04-23T09:43:14.145Z,14768.00
2019-04-23T09:44:39.118Z,14940.00
2019-04-23T09:45:12.996Z,15060.00
2019-04-23T09:46:17.435Z,15152.00
2019-04-23T09:47:16.024Z,15240.00
2019-04-23T09:48:04.937Z,15400.00
2019-04-23T09:49:36.207Z,15504.00
2019-04-23T09:50:15.675Z,15596.00
2019-04-23T09:51:17.903Z,15696.00
2019-04-23T09:52:14.603Z,15812.00
2019-04-23T09:55:24.486Z,16080.00
2019-04-23T09:56:14.847Z,16080.00
2019-04-23T09:57:14.060Z,16116.00
2019-04-23T09:58:11.868Z,16084.00
2019-04-23T09:59:32.341Z,16116.00
2019-04-23T10:00:23.074Z,16212.00
2019-04-23T10:01:20.912Z,16276.00
2019-04-23T10:02:06.620Z,16352.00
2019-04-23T10:03:02.402Z,16388.00
2019-04-23T10:04:00.048Z,16472.00
2019-04-23T10:04:59.567Z,16568.00
2019-04-23T10:05:57.152Z,16688.00
2019-04-23T10:07:03.249Z,16668.00
2019-04-23T10:07:58.631Z,16728.00
2019-04-23T10:08:51.921Z,16764.00
2019-04-23T10:09:48.367Z,16688.00
2019-04-23T10:10:47.286Z,16660.00
2019-04-23T10:11:47.330Z,16616.00
2019-04-23T10:12:48.213Z,16736.00
2019-04-23T10:13:48.382Z,16756.00
2019-04-23T10:14:59.267Z,16796.00
2019-04-23T10:15:49.666Z,16872.00
2019-04-23T10:16:49.242Z,17100.00
2019-04-23T10:17:47.692Z,17184.00
2019-04-23T10:18:49.123Z,17140.00
2019-04-23T10:19:48.669Z,17144.00
2019-04-23T10:20:48.737Z,17192.00
2019-04-23T10:21:49.190Z,17536.00
2019-04-23T10:22:48.321Z,17920.00
2019-04-23T10:23:49.564Z,18464.00
2019-04-23T10:24:48.792Z,18848.00
2019-04-23T10:25:48.189Z,20256.00
2019-04-23T10:26:48.253Z,24576.00
2019-04-23T10:27:55.075Z,32320.00
2019-04-23T10:28:49.808Z,35744.00
2019-04-23T10:29:49.849Z,37312.00
2019-04-23T10:30:49.016Z,39232.00
2019-04-23T10:31:49.460Z,41888.00
2019-04-23T10:32:49.492Z,42080.00
2019-04-23T10:33:50.284Z,43264.00
2019-04-23T10:34:57.832Z,41312.00
2019-04-23T10:35:55.109Z,35072.00
2019-04-23T10:36:49.525Z,37120.00
2019-04-23T10:37:56.855Z,33760.00
2019-04-23T10:38:55.885Z,31264.00
2019-04-23T10:39:54.855Z,29888.00
2019-04-23T10:40:50.158Z,27136.00
2019-04-23T10:41:50.969Z,25824.00
2019-04-23T10:42:51.491Z,22528.00
2019-04-23T10:43:52.368Z,22464.00
2019-04-23T10:44:52.117Z,24320.00
2019-04-23T10:46:07.975Z,26720.00
2019-04-23T10:47:15.174Z,29120.00
2019-04-23T10:49:32.135Z,27584.00
2019-04-23T10:50:17.274Z,27808.00
2019-04-23T10:51:25.054Z,28384.00
2019-04-23T10:54:26.294Z,27072.00
2019-04-23T10:55:11.861Z,27648.00
2019-04-23T10:56:20.733Z,29344.00
2019-04-23T10:57:33.911Z,30496.00
2019-04-23T10:59:19.850Z,33280.00
2019-04-23T11:00:22.314Z,33440.00
2019-04-23T11:01:20.856Z,36480.00
2019-04-23T11:02:32.876Z,37152.00
2019-04-23T11:03:38.167Z,37664.00
2019-04-23T11:04:38.505Z,41184.00
2019-04-23T11:05:35.530Z,46752.00
2019-04-23T11:06:28.771Z,46560.00
2019-04-23T11:07:28.558Z,47968.00
2019-04-23T11:08:18.291Z,53600.00
2019-04-23T11:09:36.594Z,53792.00
2019-04-23T11:10:16.088Z,52896.00
2019-04-23T11:11:24.041Z,52320.00
2019-04-23T11:12:32.492Z,50688.00
2019-04-23T11:13:25.635Z,50368.00
2019-04-23T11:14:25.586Z,48384.00
2019-04-23T11:15:32.465Z,51168.00
2019-04-23T11:17:31.967Z,48352.00
2019-04-23T11:18:34.103Z,48288.00
2019-04-23T11:19:27.646Z,48224.00
2019-04-23T11:20:35.371Z,46400.00
2019-04-23T11:22:40.275Z,44768.00
2019-04-23T11:23:17.030Z,43232.00
2019-04-23T11:24:30.490Z,43264.00
2019-04-23T11:25:33.106Z,45568.00
2019-04-23T11:26:26.424Z,41568.00
2019-04-23T11:27:25.973Z,39936.00
2019-04-23T11:28:25.792Z,39456.00
2019-04-23T11:29:27.972Z,38944.00
2019-04-23T11:31:31.561Z,37568.00
2019-04-23T11:32:42.855Z,39040.00
2019-04-23T11:33:19.894Z,38432.00
2019-04-23T11:34:46.006Z,36448.00
2019-04-23T11:37:37.967Z,35136.00
2019-04-23T11:39:21.697Z,34304.00
2019-04-23T11:40:31.317Z,34720.00
2019-04-23T11:41:31.007Z,34528.00
2019-04-23T11:43:34.237Z,33888.00
2019-04-23T11:44:26.957Z,35328.00
2019-04-23T11:45:32.510Z,34944.00
2019-04-23T11:46:39.901Z,35488.00
2019-04-23T11:48:00.451Z,34912.00
2019-04-23T11:49:51.049Z,33536.00
2019-04-23T11:50:28.117Z,33408.00
2019-04-23T11:52:30.090Z,33344.00
2019-04-23T11:53:26.063Z,34112.00
2019-04-23T11:54:27.766Z,34176.00
2019-04-23T11:55:35.789Z,34176.00
2019-04-23T11:56:49.211Z,33088.00
2019-04-23T11:59:31.651Z,32800.00
2019-04-23T12:00:26.211Z,31840.00
2019-04-23T12:02:23.449Z,31584.00
2019-04-23T12:03:19.398Z,31072.00
2019-04-23T12:05:26.587Z,31200.00
2019-04-23T12:07:22.831Z,35200.00
2019-04-23T12:08:36.512Z,38752.00
2019-04-23T12:09:35.288Z,35936.00
2019-04-23T12:10:29.069Z,38912.00
2019-04-23T12:11:48.976Z,40384.00
2019-04-23T12:12:25.081Z,40000.00
2019-04-23T12:13:32.185Z,38176.00
2019-04-23T12:14:37.177Z,36160.00
2019-04-23T12:16:28.504Z,38912.00
2019-04-23T12:20:28.919Z,39904.00
2019-04-23T12:21:32.419Z,40736.00
2019-04-23T12:24:53.617Z,42272.00
2019-04-23T12:25:27.894Z,43264.00
2019-04-23T12:26:40.777Z,42720.00
2019-04-23T12:28:36.570Z,42432.00
2019-04-23T12:29:33.905Z,43040.00
2019-04-23T12:31:29.264Z,43328.00
2019-04-23T12:33:39.126Z,44768.00
2019-04-23T12:34:30.053Z,44544.00
2019-04-23T12:35:25.691Z,45120.00
2019-04-23T12:36:28.199Z,45920.00
2019-04-23T12:37:33.388Z,47392.00
2019-04-23T12:39:27.116Z,52288.00
2019-04-23T12:41:29.859Z,53440.00
2019-04-23T12:43:27.480Z,56672.00
2019-04-23T12:44:30.654Z,62848.00
2019-04-23T12:45:31.712Z,65376.00
2019-04-23T12:46:29.670Z,65952.00
2019-04-23T12:47:43.651Z,65248.00
2019-04-23T12:48:33.731Z,65344.00
2019-04-23T12:49:47.952Z,64992.00
2019-04-23T12:51:34.997Z,57408.00
2019-04-23T12:52:36.000Z,51488.00
2019-04-23T12:53:30.626Z,48288.00
2019-04-23T12:54:47.078Z,46784.00
2019-04-23T12:55:41.910Z,48800.00
2019-04-23T12:56:21.927Z,50976.00
2019-04-23T12:57:29.666Z,52416.00
2019-04-23T12:58:26.721Z,52736.00
2019-04-23T12:59:28.653Z,51488.00
2019-04-23T13:00:27.135Z,52160.00
2019-04-23T13:01:37.791Z,51904.00
2019-04-23T13:02:41.181Z,53408.00
2019-04-23T13:04:24.872Z,56288.00
2019-04-23T13:06:20.424Z,57664.00
2019-04-23T13:07:36.729Z,60896.00
2019-04-23T13:08:33.242Z,60352.00
2019-04-23T13:09:42.919Z,62560.00
2019-04-23T13:10:30.053Z,62560.00
2019-04-23T13:11:32.994Z,64704.00
2019-04-23T13:12:38.185Z,62688.00
2019-04-23T13:13:27.986Z,64544.00
2019-04-23T13:14:34.757Z,63008.00
2019-04-23T13:17:42.581Z,65824.00
2019-04-23T13:19:40.156Z,66688.00
2019-04-23T13:20:28.041Z,65472.00
2019-04-23T13:21:52.182Z,65440.00
2019-04-23T13:22:37.431Z,64704.00
2019-04-23T13:24:26.479Z,64224.00
2019-04-23T13:25:34.813Z,63008.00
2019-04-23T13:26:27.978Z,62208.00
2019-04-23T13:27:38.638Z,60800.00
2019-04-23T13:28:28.127Z,59488.00
2019-04-23T13:29:41.017Z,58016.00
2019-04-23T13:30:44.730Z,55872.00
2019-04-23T13:31:20.449Z,52640.00
2019-04-23T13:32:31.371Z,49312.00
2019-04-23T13:33:35.494Z,44576.00
2019-04-23T13:34:37.613Z,44160.00
2019-04-23T13:36:32.470Z,40224.00
2019-04-23T13:37:40.456Z,39200.00
2019-04-23T13:38:36.312Z,38656.00
2019-04-23T13:39:34.813Z,36704.00
2019-04-23T13:40:47.522Z,36736.00
2019-04-23T13:41:30.189Z,37376.00
2019-04-23T13:43:36.256Z,37056.00
2019-04-23T13:44:34.370Z,36704.00
2019-04-23T13:46:32.936Z,35136.00
2019-04-23T13:47:41.431Z,34816.00
2019-04-23T13:48:19.930Z,34976.00
2019-04-23T13:49:37.754Z,36352.00
2019-04-23T13:55:00.027Z,34560.00
2019-04-23T13:55:26.681Z,35744.00
2019-04-23T13:56:39.261Z,36864.00
2019-04-23T13:58:02.313Z,35392.00
2019-04-23T13:58:28.361Z,34240.00
2019-04-23T13:59:42.906Z,32544.00
2019-04-23T14:01:35.445Z,28960.00
2019-04-23T14:02:40.385Z,28896.00
2019-04-23T14:03:35.765Z,30208.00
2019-04-23T14:04:41.690Z,29024.00
2019-04-23T14:05:33.104Z,28800.00
2019-04-23T14:07:44.135Z,31616.00
2019-04-23T14:10:44.860Z,32032.00
2019-04-23T14:12:43.717Z,33664.00
2019-04-23T14:14:42.129Z,36128.00
2019-04-23T14:15:40.543Z,35584.00
2019-04-23T14:16:39.702Z,36576.00
2019-04-23T14:18:53.892Z,38080.00
2019-04-23T14:19:28.092Z,37280.00
2019-04-23T14:21:35.281Z,34944.00
2019-04-23T14:22:51.242Z,35296.00
2019-04-23T14:23:59.447Z,34336.00
2019-04-23T14:24:38.231Z,34464.00
2019-04-23T14:25:40.093Z,35328.00
2019-04-23T14:26:35.186Z,35648.00
2019-04-23T14:28:37.353Z,37568.00
2019-04-23T14:29:41.418Z,38528.00
2019-04-23T14:30:38.537Z,39808.00
2019-04-23T14:31:28.524Z,39936.00
2019-04-23T14:33:46.049Z,39616.00
2019-04-23T14:34:40.845Z,39296.00
2019-04-23T14:35:32.529Z,38592.00
2019-04-23T14:36:39.694Z,37696.00
2019-04-23T14:37:38.193Z,36992.00
2019-04-23T14:39:31.739Z,36992.00
2019-04-23T14:40:43.167Z,36864.00
2019-04-23T14:41:26.401Z,36096.00
2019-04-23T14:42:49.782Z,35200.00
2019-04-23T14:44:36.548Z,33600.00
2019-04-23T14:46:41.411Z,33312.00
2019-04-23T14:47:38.022Z,32224.00
2019-04-23T14:48:30.717Z,32064.00
2019-04-23T14:52:39.061Z,29056.00
2019-04-23T14:53:30.352Z,27552.00
2019-04-23T14:54:52.499Z,26720.00
2019-04-23T14:56:35.049Z,26080.00
2019-04-23T14:57:45.173Z,26336.00
2019-04-23T14:58:57.561Z,27136.00
2019-04-23T14:59:30.727Z,27584.00
2019-04-23T15:00:46.469Z,27104.00
2019-04-23T15:01:35.512Z,27296.00
2019-04-23T15:02:44.928Z,27232.00
2019-04-23T15:03:40.346Z,27872.00
2019-04-23T15:04:39.362Z,27488.00
2019-04-23T15:05:45.974Z,27520.00
2019-04-23T15:06:46.832Z,27680.00
2019-04-23T15:07:36.972Z,26912.00
2019-04-23T15:08:50.082Z,26272.00
2019-04-23T15:09:52.789Z,25216.00
2019-04-23T15:10:49.195Z,24608.00
2019-04-23T15:11:35.412Z,24000.00
2019-04-23T15:12:40.359Z,23072.00
2019-04-23T15:13:38.581Z,21408.00
2019-04-23T15:14:46.349Z,20960.00
2019-04-23T15:15:31.868Z,20416.00
2019-04-23T15:16:39.787Z,20000.00
2019-04-23T15:17:34.679Z,19072.00
2019-04-23T15:18:45.196Z,18880.00
2019-04-23T15:20:39.270Z,19552.00
2019-04-23T15:22:42.411Z,18208.00
2019-04-23T15:24:38.447Z,17152.00
2019-04-23T15:25:53.152Z,16832.00
2019-04-23T15:26:58.870Z,19264.00
2019-04-23T15:27:45.675Z,15596.00
2019-04-23T15:28:14.208Z,14740.00
2019-04-23T15:29:26.731Z,14704.00
2019-04-23T15:30:38.759Z,14852.00
2019-04-23T15:32:47.161Z,14552.00